Accueil
METAR-TAF:

METAR-TAF

Aéroports :

Sukkur, Pakistan

latitude: 27-43-19N, longitude: 068-47-31E, altitude: 60 m

Observation

Le bulletin a été fait il y a 50 minutes, à 07:00 UTC
Vent 4 kt de nord-est
Température 21°C
Humidité 56%
Pression 1022 hPa
Visibilité: 3000 m
Nuages épars à une hauteur de 10000 ft
brume sèche

METAR: OPSK 060700Z 05004KT 3000 HZ SCT100 21/12 Q1022 NOSIG

Heure: 12:50 (07:50 UTC)

Prévision

Le bulletin a été fait il y a 4 heures et 20 minutes, à 03:30 UTC
Prévision valable du 06 à 06 UTC au 07 à 06 UTC
Vent 10 kt de nord-est
Visibilité: 4000 m
brume sèche
Evoluant progressivement
du 06 à 19 UTC au 06 à 21 UTC
Visibilité: 2500 m
brume
Temporairement
du 07 à 00 UTC au 07 à 04 UTC
Vent kt de nord
Visibilité: 0800 m

TAF: OPSK 060330Z 0606/0706 04010KT 4000 HZ NSC BECMG 0619/0621 2500 BR NSC TEMPO 0700/0704 00000KT 0800 VV///

Observations et prévisions météorologiques de plus de 4000 aéroports (messages METAR et TAF).

Les stations disponibles sont représentées par des disques jaunes et rouges sur la carte.

Passer la souris dessus pour voir le nom de la station.

Cliquer dessus pour voir les observations et prévisions météorologiques.

Pour changer de carte: cliquez sur les boutons verts avec une croix noire pour zoomer, sur le bouton vert avec un tiret pour effectuer un zoom arrière, ou sur les flèches vertes pour les cartes adjacentes.


METAR-TAF: